This is the latest recevied weather packets stored in our database for station/object KD0KHX-10. If no packets are shown the sender has not sent any weather packets the latest 10 day(s).
| Time | Temp. | Humidity | Pressure | Rain* | Wind** | Luminosity | Snow |
|---|---|---|---|---|---|---|---|
| 1777909938 | 23.33° C | 27% | 999.6 hPa | 0 mm | - | - | - |
| 1777909203 | 22.22° C | 29% | 999.7 hPa | 0 mm | - | - | - |
| 1777908903 | 22.22° C | 28% | 999.7 hPa | 0 mm | - | - | - |
| 1777906472 | 20.56° C | 31% | 1000 hPa | 0 mm | - | - | - |
| 1777905603 | 19.44° C | 37% | 1000.2 hPa | 0 mm | - | - | - |
| 1777905303 | 18.33° C | 38% | 1000.1 hPa | 0 mm | - | - | - |
| 1777903038 | 14.44° C | 51% | 1000.4 hPa | 0 mm | - | - | - |
| 1777902737 | 13.89° C | 52% | 1000.4 hPa | 0 mm | - | - | - |
| 1777902438 | 13.33° C | 54% | 1000.5 hPa | 0 mm | - | - | - |
| 1777901838 | 12.22° C | 58% | 1000.5 hPa | 0 mm | - | - | - |
| 1777901103 | 11.11° C | 61% | 1000.5 hPa | 0 mm | - | - | - |
| 1777900937 | 10.56° C | 62% | 1000.6 hPa | 0 mm | - | - | - |
| 1777900773 | 10.56° C | 63% | 1000.4 hPa | 0 mm | - | - | - |
| 1777899573 | 8.89° C | 66% | 1000.1 hPa | 0 mm | - | - | - |
| 1777898237 | 6.67° C | 70% | 999.7 hPa | 0 mm | - | - | - |
| 1777897803 | 6.11° C | 72% | 999.7 hPa | 0 mm | - | - | - |
| 1777897503 | 6.11° C | 72% | 999.7 hPa | 0 mm | - | - | - |
| 1777897203 | 5.56° C | 73% | 999.7 hPa | 0 mm | - | - | - |
| 1777897172 | 5.56° C | 73% | 999.7 hPa | 0 mm | - | - | - |
| 1777896738 | 5° C | 73% | 999.6 hPa | 0 mm | - | - | - |
| 1777895703 | 4.44° C | 74% | 999.5 hPa | 0 mm | - | - | - |
| 1777895538 | 4.44° C | 74% | 999.5 hPa | 0 mm | - | - | - |
| 1777894338 | 4.44° C | 73% | 999.2 hPa | 0 mm | - | - | - |
| 1777893903 | 4.44° C | 74% | 999.3 hPa | 0 mm | - | - | - |
| 1777893603 | 4.44° C | 74% | 999.2 hPa | 0 mm | - | - | - |
* Rain latest hour (hover to see other rain measurements)
** Current wind speed in m/s (hover to see current wind gust speed)